Time;durP1;ratioP1;P1;durP2;ratioP2;P2;SDS_P1;SDS_P2;PMS_P1;PMS_P2;Temp;Humidity;BMP_temperature;BMP_pressure;BME280_temperature;BME280_humidity;BME280_pressure;Samples;Min_cycle;Max_cycle;Signal;HPM_P1;HPM_P2
2022/09/09 00:01:40;;;;;;;3.05;2.03;;;15.70;1.00;;;;;;10520045;28;20246;-76
2022/09/09 00:07:23;;;;;;;3.80;1.88;;;15.60;1.00;;;;;;10513027;28;20208;-75
2022/09/09 00:13:03;;;;;;;4.00;1.88;;;;;;;;;;10505758;28;20196;-75
2022/09/09 00:18:50;;;;;;;5.30;2.03;;;15.70;1.00;;;;;;10540567;28;20234;-76
2022/09/09 00:24:38;;;;;;;5.45;2.13;;;15.70;1.00;;;;;;10489270;28;20372;-77
2022/09/09 00:30:27;;;;;;;9.70;2.10;;;15.70;1.00;;;;;;10463496;28;20494;-76
2022/09/09 00:35:59;;;;;;;5.38;2.10;;;15.70;1.00;;;;;;10513321;28;20312;-78
2022/09/09 00:41:27;;;;;;;4.90;2.17;;;15.70;1.00;;;;;;10504494;28;20383;-78
2022/09/09 00:47:15;;;;;;;9.60;2.10;;;15.70;1.00;;;;;;10516595;28;20205;-76
2022/09/09 00:53:13;;;;;;;6.57;2.28;;;15.60;1.00;;;;;;10561749;28;20242;-79
2022/09/09 00:58:35;;;;;;;5.07;2.13;;;15.60;1.00;;;;;;10534047;28;20267;-76
2022/09/09 01:04:00;;;;;;;3.33;2.20;;;15.60;1.00;;;;;;10518134;28;20202;-76
2022/09/09 01:09:33;;;;;;;3.47;2.22;;;15.50;1.00;;;;;;10518518;28;20205;-75
2022/09/09 01:15:20;;;;;;;3.15;1.83;;;15.50;1.00;;;;;;10518089;28;20301;-77
2022/09/09 01:21:08;;;;;;;4.80;1.80;;;15.50;1.00;;;;;;10534515;28;20213;-75
2022/09/09 01:26:32;;;;;;;5.22;2.42;;;15.50;1.00;;;;;;10476448;28;20186;-77
2022/09/09 01:32:20;;;;;;;3.90;2.17;;;15.50;99.90;;;;;;10482203;28;20479;-77
2022/09/09 01:37:41;;;;;;;5.57;2.42;;;15.50;1.00;;;;;;10521251;28;20220;-78
2022/09/09 01:43:04;;;;;;;7.90;3.00;;;15.30;1.00;;;;;;10526034;28;20188;-78
2022/09/09 01:48:26;;;;;;;5.10;3.13;;;;;;;;;;10551534;28;20202;-75
2022/09/09 01:53:55;;;;;;;11.02;5.75;;;14.80;99.90;;;;;;10567488;28;20190;-77
2022/09/09 01:59:45;;;;;;;5.75;3.95;;;14.60;1.00;;;;;;10496791;28;20235;-75
2022/09/09 02:05:43;;;;;;;9.85;4.28;;;14.30;1.00;;;;;;10516626;28;20277;-82
2022/09/09 02:11:19;;;;;;;5.53;3.50;;;13.90;1.00;;;;;;10526064;28;20499;-75
2022/09/09 02:16:59;;;;;;;6.43;4.13;;;13.90;1.00;;;;;;10531326;28;20232;-82
2022/09/09 02:22:33;;;;;;;5.82;3.53;;;13.60;1.00;;;;;;10514154;28;20393;-75
2022/09/09 02:28:00;;;;;;;8.60;3.88;;;13.70;1.00;;;;;;10483201;28;20296;-74
2022/09/09 02:33:27;;;;;;;4.40;3.50;;;13.70;36.30;;;;;;10502434;28;20475;-77
2022/09/09 02:38:50;;;;;;;5.93;3.67;;;13.60;99.90;;;;;;10509911;28;20283;-83
2022/09/09 02:44:19;;;;;;;7.15;3.92;;;13.60;99.90;;;;;;10523920;28;20240;-77
2022/09/09 02:50:09;;;;;;;9.52;3.70;;;13.50;99.90;;;;;;10560229;28;20196;-75
2022/09/09 02:55:42;;;;;;;4.57;3.17;;;13.50;99.90;;;;;;10565224;28;20209;-75
2022/09/09 03:01:06;;;;;;;7.55;3.90;;;13.40;99.90;;;;;;10542855;28;20226;-75
2022/09/09 03:06:28;;;;;;;8.82;4.05;;;13.30;99.90;;;;;;10509033;28;20236;-84
2022/09/09 03:12:00;;;;;;;6.20;3.53;;;13.20;99.90;;;;;;10523312;28;20199;-78
2022/09/09 03:17:25;;;;;;;8.57;4.28;;;;;;;;;;10520696;28;20265;-75
2022/09/09 03:22:48;;;;;;;5.80;3.83;;;13.00;99.90;;;;;;10516563;28;20207;-75
2022/09/09 03:28:11;;;;;;;10.20;4.77;;;13.00;99.90;;;;;;10466147;28;20520;-75
2022/09/09 03:33:35;;;;;;;10.63;4.47;;;12.80;99.90;;;;;;10483557;28;20473;-75
2022/09/09 03:38:58;;;;;;;8.10;4.33;;;12.70;99.90;;;;;;10507878;28;20465;-75
2022/09/09 03:44:23;;;;;;;5.87;3.90;;;12.80;99.90;;;;;;10507032;28;20200;-76
2022/09/09 03:49:45;;;;;;;7.33;3.90;;;12.70;99.90;;;;;;10559144;28;20224;-75
2022/09/09 03:55:07;;;;;;;5.22;3.67;;;12.60;99.90;;;;;;10534511;28;20198;-75
2022/09/09 04:00:30;;;;;;;7.87;4.03;;;12.60;99.90;;;;;;10526728;28;20198;-76
2022/09/09 04:05:53;;;;;;;9.68;4.28;;;12.60;99.90;;;;;;10520610;28;20223;-84
2022/09/09 04:11:16;;;;;;;10.70;4.70;;;12.60;99.90;;;;;;10521348;28;20200;-82
2022/09/09 04:16:42;;;;;;;8.35;3.83;;;12.60;99.90;;;;;;10525689;28;20230;-75
2022/09/09 04:22:05;;;;;;;7.57;4.13;;;12.60;99.90;;;;;;10551994;28;20202;-74
2022/09/09 04:27:27;;;;;;;7.80;4.03;;;12.60;99.90;;;;;;10519574;28;20215;-77
2022/09/09 04:32:48;;;;;;;8.02;4.65;;;12.60;99.90;;;;;;10519276;28;20245;-76
2022/09/09 04:38:09;;;;;;;7.03;4.37;;;12.50;99.90;;;;;;10520143;28;20225;-79
2022/09/09 04:43:30;;;;;;;7.07;4.27;;;12.60;99.90;;;;;;10505020;28;20194;-83
2022/09/09 04:48:55;;;;;;;7.07;4.83;;;12.60;99.90;;;;;;10534685;28;20225;-80
2022/09/09 04:54:21;;;;;;;9.20;5.07;;;12.40;99.90;;;;;;10560454;28;20204;-75
2022/09/09 04:59:44;;;;;;;10.90;4.30;;;12.50;99.90;;;;;;10556209;28;20221;-75
2022/09/09 05:05:06;;;;;;;10.33;5.13;;;12.50;99.90;;;;;;10513293;28;20255;-76
2022/09/09 05:10:29;;;;;;;15.87;5.20;;;12.40;99.90;;;;;;10518319;28;20210;-74
2022/09/09 05:15:53;;;;;;;8.00;4.57;;;12.60;99.90;;;;;;10503415;28;20245;-77
2022/09/09 05:21:16;;;;;;;8.30;5.10;;;12.60;99.90;;;;;;10559950;28;20222;-77
2022/09/09 05:26:38;;;;;;;9.77;5.83;;;12.60;99.90;;;;;;10560472;28;20215;-84
2022/09/09 05:32:01;;;;;;;10.23;6.17;;;12.60;99.90;;;;;;10549945;28;20194;-82
2022/09/09 05:37:23;;;;;;;9.23;5.90;;;12.70;99.90;;;;;;10517562;28;20214;-75
2022/09/09 05:42:44;;;;;;;9.20;5.67;;;12.70;99.90;;;;;;10517602;28;20187;-77
2022/09/09 05:48:07;;;;;;;8.63;4.83;;;12.60;99.90;;;;;;10540957;28;20228;-76
2022/09/09 05:53:34;;;;;;;11.45;4.78;;;12.60;99.90;;;;;;10559384;28;20193;-75
2022/09/09 05:58:55;;;;;;;7.18;4.78;;;12.60;99.90;;;;;;10558917;28;20229;-76
2022/09/09 06:04:17;;;;;;;9.70;4.83;;;12.70;99.90;;;;;;10508402;28;20199;-77
2022/09/09 06:09:39;;;;;;;8.97;4.83;;;12.60;99.90;;;;;;10475905;28;20206;-76
2022/09/09 06:15:01;;;;;;;7.70;4.43;;;12.60;99.90;;;;;;10475138;28;20424;-75
2022/09/09 06:20:22;;;;;;;6.33;4.23;;;12.60;99.90;;;;;;10547688;28;20225;-82
2022/09/09 06:25:45;;;;;;;6.87;4.63;;;12.60;99.90;;;;;;10564844;28;20226;-77
2022/09/09 06:31:08;;;;;;;5.03;4.17;;;12.60;99.90;;;;;;10547333;28;20185;-76
2022/09/09 06:36:33;;;;;;;7.70;5.20;;;12.70;99.90;;;;;;10523664;28;20301;-81
2022/09/09 06:41:57;;;;;;;7.03;3.63;;;12.80;99.90;;;;;;10524837;28;20186;-78
2022/09/09 06:47:42;;;;;;;7.87;4.03;;;12.70;99.90;;;;;;10457162;28;20214;-76
2022/09/09 06:53:03;;;;;;;6.97;5.10;;;12.80;99.90;;;;;;10479272;28;20202;-75
2022/09/09 06:58:24;;;;;;;5.30;3.60;;;12.90;99.90;;;;;;10478460;28;20238;-76
2022/09/09 07:03:50;;;;;;;5.13;3.80;;;12.80;99.90;;;;;;10440395;28;20212;-76
2022/09/09 07:09:16;;;;;;;7.53;3.33;;;12.70;99.90;;;;;;10437211;28;20232;-78
2022/09/09 07:14:39;;;;;;;3.78;2.42;;;12.90;99.90;;;;;;10386413;28;20769;-81
2022/09/09 07:20:04;;;;;;;3.07;2.47;;;12.80;99.90;;;;;;10312793;28;20561;-79
2022/09/09 07:25:30;;;;;;;3.83;2.40;;;12.90;99.90;;;;;;10335623;28;20300;-76
2022/09/09 07:31:03;;;;;;;3.65;2.40;;;13.00;99.90;;;;;;10365495;28;20272;-77
2022/09/09 07:36:37;;;;;;;2.10;1.90;;;13.00;99.90;;;;;;10392828;28;20222;-87
2022/09/09 07:42:00;;;;;;;3.97;2.07;;;13.00;99.90;;;;;;10378736;28;20249;-79
2022/09/09 07:47:24;;;;;;;3.70;2.70;;;13.00;99.90;;;;;;10377993;28;20208;-77
2022/09/09 07:52:46;;;;;;;9.68;3.38;;;13.10;99.90;;;;;;10390717;28;20224;-77
2022/09/09 07:58:08;;;;;;;7.68;4.32;;;13.00;99.90;;;;;;10392113;28;20240;-83
2022/09/09 08:03:29;;;;;;;6.30;3.70;;;13.10;99.90;;;;;;10345932;28;20204;-79
2022/09/09 08:08:52;;;;;;;6.47;3.38;;;13.00;99.90;;;;;;10351140;28;20218;-83
2022/09/09 08:14:14;;;;;;;3.10;1.93;;;13.00;99.90;;;;;;10378297;28;20267;-86
2022/09/09 08:19:36;;;;;;;3.47;2.47;;;13.00;99.90;;;;;;10393202;28;20452;-77
2022/09/09 08:25:06;;;;;;;6.63;4.70;;;13.10;99.90;;;;;;10403370;28;20195;-78
2022/09/09 08:30:29;;;;;;;5.32;3.70;;;13.20;99.90;;;;;;10389073;28;20196;-76
2022/09/09 08:35:52;;;;;;;7.55;2.90;;;13.20;99.90;;;;;;10392111;28;20229;-80
2022/09/09 08:41:21;;;;;;;4.22;3.33;;;13.10;99.90;;;;;;10375939;28;20520;-76
2022/09/09 08:47:07;;;;;;;3.20;2.40;;;13.10;99.90;;;;;;10388409;28;20197;-76
2022/09/09 08:52:38;;;;;;;3.55;2.45;;;13.20;99.90;;;;;;10390049;28;20186;-77
2022/09/09 08:58:09;;;;;;;5.47;3.33;;;13.10;99.90;;;;;;10404000;28;20251;-85
2022/09/09 09:03:41;;;;;;;3.70;2.10;;;13.10;99.90;;;;;;10365436;28;20283;-77
2022/09/09 09:09:21;;;;;;;3.20;2.37;;;13.10;99.90;;;;;;10351123;28;20277;-76
2022/09/09 09:14:46;;;;;;;2.22;2.00;;;13.20;99.90;;;;;;10389326;28;20240;-81
2022/09/09 09:20:14;;;;;;;2.88;2.58;;;13.20;99.90;;;;;;10408910;28;20231;-84
2022/09/09 09:25:40;;;;;;;3.50;2.00;;;13.40;99.90;;;;;;10389010;28;20219;-77
2022/09/09 09:31:10;;;;;;;1.98;1.77;;;13.50;99.90;;;;;;10388764;28;20191;-78
2022/09/09 09:36:58;;;;;;;2.20;1.83;;;13.50;99.90;;;;;;10375019;28;20580;-77
2022/09/09 09:42:24;;;;;;;2.38;2.13;;;13.60;99.90;;;;;;10388780;28;20228;-77
2022/09/09 09:48:05;;;;;;;2.67;2.22;;;13.60;99.90;;;;;;10388306;28;20212;-76
2022/09/09 09:53:31;;;;;;;3.45;2.67;;;13.60;99.90;;;;;;10388640;28;20201;-77
2022/09/09 09:58:54;;;;;;;3.00;2.70;;;13.60;99.90;;;;;;10414731;28;20233;-77
2022/09/09 10:04:23;;;;;;;3.70;2.45;;;13.50;99.90;;;;;;10394941;28;20205;-75
2022/09/09 10:09:55;;;;;;;4.78;2.80;;;13.50;99.90;;;;;;10386173;28;20397;-79
2022/09/09 10:15:25;;;;;;;3.17;2.55;;;13.60;99.90;;;;;;10409612;28;20263;-79
2022/09/09 10:20:56;;;;;;;5.35;3.58;;;13.70;99.90;;;;;;10370352;28;20289;-77
2022/09/09 10:26:32;;;;;;;4.80;3.50;;;13.70;99.90;;;;;;10369921;28;20223;-76
2022/09/09 10:31:59;;;;;;;7.38;6.40;;;13.80;99.90;;;;;;10373346;28;20252;-79
2022/09/09 10:37:45;;;;;;;4.95;4.45;;;13.70;99.90;;;;;;10389641;28;20226;-77
2022/09/09 10:43:39;;;;;;;7.57;4.70;;;13.70;99.90;;;;;;10391351;28;20207;-76
2022/09/09 10:49:35;;;;;;;10.98;5.38;;;13.80;99.90;;;;;;10394892;28;20209;-79
2022/09/09 10:54:57;;;;;;;10.70;9.00;;;13.90;99.90;;;;;;10412497;28;20273;-78
2022/09/09 11:00:22;;;;;;;5.43;4.15;;;13.90;99.90;;;;;;10396134;28;20247;-77
2022/09/09 11:05:53;;;;;;;5.80;4.38;;;13.90;99.90;;;;;;10393259;28;20209;-82
2022/09/09 11:11:39;;;;;;;5.50;4.63;;;13.90;99.90;;;;;;10393555;28;20198;-77
2022/09/09 11:17:29;;;;;;;9.48;6.57;;;13.80;99.90;;;;;;10401798;28;20248;-77
2022/09/09 11:23:03;;;;;;;11.63;5.90;;;13.90;99.90;;;;;;10433850;28;20201;-80
2022/09/09 11:28:39;;;;;;;47.50;22.17;;;13.90;99.90;;;;;;10412803;28;20202;-80
2022/09/09 11:34:34;;;;;;;17.73;11.20;;;13.90;99.90;;;;;;10369766;28;20216;-79
2022/09/09 11:40:19;;;;;;;9.65;6.65;;;13.90;99.90;;;;;;10377782;28;20299;-77
2022/09/09 11:45:42;;;;;;;7.53;6.00;;;14.00;99.90;;;;;;10390485;28;20519;-79
2022/09/09 11:51:12;;;;;;;7.05;5.00;;;14.10;99.90;;;;;;10386121;28;20197;-77
2022/09/09 11:56:45;;;;;;;9.40;6.32;;;14.10;99.90;;;;;;10374022;28;20218;-77
2022/09/09 12:02:21;;;;;;;9.35;6.40;;;14.20;99.90;;;;;;10392492;28;20715;-79
2022/09/09 12:07:56;;;;;;;7.13;5.25;;;14.20;99.90;;;;;;10397700;28;20243;-78
2022/09/09 12:13:24;;;;;;;7.85;5.88;;;14.20;99.90;;;;;;10390534;28;20221;-77
2022/09/09 12:18:46;;;;;;;7.30;6.18;;;14.20;99.90;;;;;;10395933;28;20548;-80
2022/09/09 12:24:36;;;;;;;8.63;6.32;;;14.20;99.90;;;;;;10390790;28;20197;-77
2022/09/09 12:30:09;;;;;;;10.13;7.07;;;14.10;99.90;;;;;;10390781;28;20195;-80
2022/09/09 12:35:31;;;;;;;16.88;11.60;;;14.10;99.90;;;;;;10389281;28;20813;-78
2022/09/09 12:40:57;;;;;;;14.57;9.00;;;14.20;99.90;;;;;;10363476;28;20241;-79
2022/09/09 12:46:46;;;;;;;10.80;6.97;;;14.30;99.90;;;;;;10371553;28;20249;-78
2022/09/09 12:52:18;;;;;;;11.93;8.60;;;14.50;99.90;;;;;;10410369;28;20216;-77
2022/09/09 12:57:40;;;;;;;9.77;6.90;;;14.60;99.90;;;;;;10389785;28;20305;-78
2022/09/09 13:03:16;;;;;;;19.77;15.57;;;14.60;99.90;;;;;;10388756;28;20399;-77
2022/09/09 13:08:37;;;;;;;23.25;18.02;;;14.50;99.90;;;;;;10391264;28;20202;-75
2022/09/09 13:13:59;;;;;;;14.00;10.63;;;14.50;99.90;;;;;;10349485;28;20419;-78
2022/09/09 13:19:21;;;;;;;12.63;9.35;;;14.60;99.90;;;;;;10403854;28;20222;-77
2022/09/09 13:24:43;;;;;;;12.25;9.35;;;14.50;99.90;;;;;;10362128;28;20198;-77
2022/09/09 13:30:23;;;;;;;9.45;8.07;;;14.50;99.90;;;;;;10390656;28;20628;-78
2022/09/09 13:35:46;;;;;;;11.55;8.98;;;14.60;99.90;;;;;;10397006;28;20202;-76
2022/09/09 13:41:10;;;;;;;13.27;9.73;;;14.70;99.90;;;;;;10398241;28;20319;-75
2022/09/09 13:46:34;;;;;;;12.88;10.52;;;14.80;99.90;;;;;;10398578;28;20193;-78
2022/09/09 13:52:09;;;;;;;13.70;10.68;;;14.80;99.90;;;;;;10398385;28;20287;-78
2022/09/09 13:57:31;;;;;;;11.77;10.05;;;14.90;99.90;;;;;;10397225;28;20222;-75
2022/09/09 14:02:52;;;;;;;16.25;11.70;;;14.80;99.90;;;;;;10382422;28;20194;-84
2022/09/09 14:08:25;;;;;;;14.10;12.32;;;14.70;99.90;;;;;;10397653;28;20206;-77
2022/09/09 14:13:49;;;;;;;14.23;11.20;;;14.70;99.90;;;;;;10413860;28;20397;-78
2022/09/09 14:19:11;;;;;;;14.52;10.93;;;14.80;99.90;;;;;;10422839;28;20225;-79
2022/09/09 14:24:33;;;;;;;18.42;14.93;;;14.80;99.90;;;;;;10436651;28;20201;-75
2022/09/09 14:29:55;;;;;;;22.80;16.17;;;14.80;99.90;;;;;;10417568;28;20237;-76
2022/09/09 14:35:18;;;;;;;22.92;16.52;;;14.90;99.90;;;;;;10395639;28;20279;-79
2022/09/09 14:40:39;;;;;;;23.20;15.77;;;15.00;99.90;;;;;;10394893;28;20445;-77
2022/09/09 14:46:14;;;;;;;25.88;17.75;;;15.10;99.90;;;;;;10395520;28;20267;-76
2022/09/09 14:51:35;;;;;;;27.77;17.98;;;15.30;99.90;;;;;;10414701;28;20216;-78
2022/09/09 14:56:57;;;;;;;23.98;16.33;;;15.60;99.90;;;;;;10394332;28;20287;-78
2022/09/09 15:02:18;;;;;;;20.42;15.13;;;15.70;99.90;;;;;;10394743;28;20196;-76
2022/09/09 15:07:39;;;;;;;21.10;15.80;;;15.70;99.90;;;;;;10394403;28;20251;-79
2022/09/09 15:13:01;;;;;;;19.80;15.38;;;15.50;99.90;;;;;;10387778;28;20195;-79
2022/09/09 15:18:22;;;;;;;26.27;18.55;;;15.50;99.90;;;;;;10399090;28;20470;-76
2022/09/09 15:23:44;;;;;;;25.63;18.02;;;15.50;99.90;;;;;;10399618;28;20265;-76
2022/09/09 15:29:05;;;;;;;18.27;14.13;;;15.40;99.90;;;;;;10395360;28;20199;-76
2022/09/09 15:34:26;;;;;;;23.10;15.93;;;15.40;99.90;;;;;;10394732;28;20258;-75
2022/09/09 15:39:48;;;;;;;21.55;16.48;;;15.40;99.90;;;;;;10381600;28;20231;-76
2022/09/09 15:45:10;;;;;;;24.40;18.40;;;15.50;99.90;;;;;;10354890;28;20195;-76
2022/09/09 15:50:32;;;;;;;19.70;16.52;;;15.30;99.90;;;;;;10368836;28;20194;-77
2022/09/09 15:55:55;;;;;;;22.98;18.17;;;15.20;99.90;;;;;;10396860;28;20418;-77
2022/09/09 16:01:16;;;;;;;24.75;17.55;;;15.10;99.90;;;;;;10397584;28;20447;-76
2022/09/09 16:06:38;;;;;;;19.02;15.73;;;15.00;99.90;;;;;;10397897;28;20510;-77
2022/09/09 16:12:02;;;;;;;24.88;18.80;;;14.90;99.90;;;;;;10397395;28;20198;-77
2022/09/09 16:17:24;;;;;;;31.65;24.98;;;;;;;;;;10407422;28;20420;-76
2022/09/09 16:22:45;;;;;;;24.27;17.42;;;14.90;99.90;;;;;;10438429;28;20222;-76
2022/09/09 16:28:07;;;;;;;24.90;19.63;;;14.80;99.90;;;;;;10434884;28;20189;-78
2022/09/09 16:33:28;;;;;;;28.48;20.33;;;14.80;99.90;;;;;;10395912;28;20470;-76
2022/09/09 16:38:57;;;;;;;29.80;21.73;;;14.80;99.90;;;;;;10379579;28;20227;-76
2022/09/09 16:44:19;;;;;;;40.05;25.05;;;14.80;99.90;;;;;;10355690;28;20190;-76
2022/09/09 16:49:40;;;;;;;29.67;20.92;;;14.70;99.90;;;;;;10380075;28;20198;-76
2022/09/09 16:55:02;;;;;;;28.38;18.33;;;14.60;99.90;;;;;;10355413;28;20271;-80
2022/09/09 17:00:23;;;;;;;23.27;17.80;;;14.60;99.90;;;;;;10376010;28;20249;-76
2022/09/09 17:05:44;;;;;;;22.00;16.98;;;14.60;99.90;;;;;;10394600;28;20356;-76
2022/09/09 17:11:17;;;;;;;24.83;18.85;;;14.60;99.90;;;;;;10408446;28;20194;-77
2022/09/09 17:16:39;;;;;;;31.40;22.15;;;14.60;99.90;;;;;;10413726;28;20214;-76
2022/09/09 17:22:02;;;;;;;26.60;20.20;;;14.50;99.90;;;;;;10436084;28;20379;-76
2022/09/09 17:27:35;;;;;;;28.73;20.33;;;14.60;99.90;;;;;;10436559;28;20199;-76
2022/09/09 17:32:56;;;;;;;27.83;19.00;;;14.60;99.90;;;;;;10379692;28;20521;-76
2022/09/09 17:38:18;;;;;;;29.60;19.15;;;14.60;99.90;;;;;;10395043;28;20226;-77
2022/09/09 17:43:40;;;;;;;31.00;20.88;;;14.60;99.90;;;;;;10394963;28;20352;-76
2022/09/09 17:49:04;;;;;;;27.40;19.38;;;14.50;99.90;;;;;;10393851;28;20502;-75
2022/09/09 17:54:25;;;;;;;31.73;22.17;;;14.50;99.90;;;;;;10393375;28;20262;-76
2022/09/09 17:59:47;;;;;;;30.33;21.70;;;14.50;99.90;;;;;;10391440;28;20529;-76
2022/09/09 18:05:08;;;;;;;30.38;22.60;;;14.50;99.90;;;;;;10354122;28;20267;-76
2022/09/09 18:10:30;;;;;;;30.35;22.88;;;14.50;99.90;;;;;;10353925;28;20456;-76
2022/09/09 18:15:52;;;;;;;34.00;25.20;;;14.50;99.90;;;;;;10366192;28;20252;-75
2022/09/09 18:21:14;;;;;;;30.33;22.02;;;14.30;99.90;;;;;;10359032;28;20228;-76
2022/09/09 18:26:36;;;;;;;28.63;20.88;;;14.40;99.90;;;;;;10360345;28;20188;-76
2022/09/09 18:31:58;;;;;;;31.77;22.40;;;14.40;99.90;;;;;;10364594;28;20248;-76
2022/09/09 18:37:19;;;;;;;30.75;21.65;;;14.50;99.90;;;;;;10401205;28;20215;-76
2022/09/09 18:42:41;;;;;;;34.15;22.88;;;14.50;99.90;;;;;;10401448;28;20193;-76
2022/09/09 18:48:04;;;;;;;32.72;23.13;;;14.40;99.90;;;;;;10413967;28;20267;-79
2022/09/09 18:53:26;;;;;;;34.70;23.52;;;14.50;99.90;;;;;;10390298;28;20446;-76
2022/09/09 18:58:52;;;;;;;36.80;22.17;;;14.40;99.90;;;;;;10411872;28;20214;-77
2022/09/09 19:04:13;;;;;;;33.60;21.40;;;14.50;99.90;;;;;;10401900;28;20496;-75
2022/09/09 19:09:35;;;;;;;34.03;22.80;;;14.50;99.90;;;;;;10399113;28;20396;-78
2022/09/09 19:14:56;;;;;;;36.15;23.85;;;14.50;99.90;;;;;;10399221;28;20227;-75
2022/09/09 19:20:22;;;;;;;30.67;21.73;;;14.50;99.90;;;;;;10420959;28;20276;-76
2022/09/09 19:25:44;;;;;;;34.20;21.30;;;14.50;99.90;;;;;;10408759;28;20194;-75
2022/09/09 19:31:07;;;;;;;34.80;21.30;;;14.40;99.90;;;;;;10372435;28;20201;-75
2022/09/09 19:36:30;;;;;;;28.38;21.83;;;14.40;99.90;;;;;;10367383;28;20199;-75
2022/09/09 19:41:51;;;;;;;27.58;19.35;;;14.40;99.90;;;;;;10397554;28;20232;-78
2022/09/09 19:47:13;;;;;;;29.67;19.33;;;14.40;99.90;;;;;;10397124;28;20200;-77
2022/09/09 19:52:35;;;;;;;28.95;19.15;;;14.40;99.90;;;;;;10401710;28;20210;-79
2022/09/09 19:57:56;;;;;;;31.10;18.95;;;14.40;99.90;;;;;;10396925;28;20670;-76
2022/09/09 20:03:17;;;;;;;30.98;18.13;;;14.40;99.90;;;;;;10383104;28;20204;-77
2022/09/09 20:08:40;;;;;;;26.80;18.15;;;14.30;99.90;;;;;;10397837;28;20445;-76
2022/09/09 20:14:02;;;;;;;28.52;19.55;;;14.40;99.90;;;;;;10396158;28;20201;-77
2022/09/09 20:19:23;;;;;;;29.90;19.15;;;14.30;99.90;;;;;;10395505;28;20410;-79
2022/09/09 20:24:45;;;;;;;27.83;17.98;;;14.30;99.90;;;;;;10396366;28;20238;-80
2022/09/09 20:30:07;;;;;;;31.48;22.20;;;14.30;99.90;;;;;;10378063;28;20207;-76
2022/09/09 20:35:30;;;;;;;29.17;21.58;;;14.30;99.90;;;;;;10358359;28;20199;-76
2022/09/09 20:40:51;;;;;;;25.15;18.15;;;14.20;99.90;;;;;;10394736;28;20233;-76
2022/09/09 20:46:12;;;;;;;27.58;19.55;;;14.20;99.90;;;;;;10395065;28;20487;-77
2022/09/09 20:51:35;;;;;;;22.40;16.65;;;14.20;99.90;;;;;;10398924;28;20231;-78
2022/09/09 20:56:58;;;;;;;26.42;17.63;;;14.20;99.90;;;;;;10381190;28;20204;-76
2022/09/09 21:02:20;;;;;;;27.60;17.83;;;14.30;99.90;;;;;;10394848;28;20231;-76
2022/09/09 21:07:42;;;;;;;25.95;19.27;;;14.20;99.90;;;;;;10395776;28;20192;-76
2022/09/09 21:13:04;;;;;;;28.92;20.10;;;14.20;99.90;;;;;;10394470;28;20230;-76
2022/09/09 21:18:28;;;;;;;30.02;20.02;;;14.10;99.90;;;;;;10398893;28;20256;-76
2022/09/09 21:23:55;;;;;;;30.80;21.73;;;14.00;99.90;;;;;;10339847;28;20224;-76
2022/09/09 21:29:16;;;;;;;30.33;22.42;;;14.00;99.90;;;;;;10354155;28;20411;-76
2022/09/09 21:34:37;;;;;;;28.65;21.10;;;14.00;99.90;;;;;;10353526;28;20311;-77
2022/09/09 21:39:58;;;;;;;29.05;19.60;;;14.00;99.90;;;;;;10393078;28;20239;-77
2022/09/09 21:45:19;;;;;;;26.67;18.30;;;14.00;99.90;;;;;;10394905;28;20499;-76
2022/09/09 21:50:47;;;;;;;24.13;16.40;;;14.10;99.90;;;;;;10400900;28;20427;-77
2022/09/09 21:56:14;;;;;;;20.02;16.05;;;14.00;99.90;;;;;;10402357;28;20190;-77
2022/09/09 22:01:36;;;;;;;21.40;16.50;;;14.10;99.90;;;;;;10401706;28;20218;-77
2022/09/09 22:06:57;;;;;;;20.48;15.27;;;14.00;99.90;;;;;;10415679;28;20197;-76
2022/09/09 22:12:19;;;;;;;21.48;13.75;;;14.00;99.90;;;;;;10402182;28;20200;-76
2022/09/09 22:17:41;;;;;;;12.45;10.13;;;13.90;99.90;;;;;;10408690;28;20255;-77
2022/09/09 22:23:02;;;;;;;13.25;10.90;;;13.90;99.90;;;;;;10401927;28;20518;-79
2022/09/09 22:28:24;;;;;;;16.30;12.95;;;13.90;99.90;;;;;;10410454;28;20261;-76
2022/09/09 22:33:46;;;;;;;27.70;21.08;;;13.90;99.90;;;;;;10375981;28;20444;-78
2022/09/09 22:39:07;;;;;;;29.48;20.70;;;13.80;99.90;;;;;;10392358;28;20228;-76
2022/09/09 22:44:28;;;;;;;37.03;23.20;;;13.60;99.90;;;;;;10399935;28;20265;-76
2022/09/09 22:49:50;;;;;;;32.55;21.15;;;13.60;99.90;;;;;;10405213;28;20274;-76
2022/09/09 22:55:12;;;;;;;32.73;21.20;;;13.50;99.90;;;;;;10400386;28;20243;-76
2022/09/09 23:00:33;;;;;;;37.60;24.47;;;13.60;99.90;;;;;;10358773;28;20435;-77
2022/09/09 23:05:56;;;;;;;35.17;23.88;;;13.70;99.90;;;;;;10359041;28;20196;-76
2022/09/09 23:11:37;;;;;;;34.83;23.83;;;13.60;99.90;;;;;;10359269;28;20194;-77
2022/09/09 23:17:17;;;;;;;35.53;24.08;;;13.50;99.90;;;;;;10386779;28;20255;-77
2022/09/09 23:22:57;;;;;;;31.33;23.53;;;13.50;99.90;;;;;;10399320;28;20205;-76
2022/09/09 23:28:41;;;;;;;30.57;22.07;;;13.50;99.90;;;;;;10393325;28;20205;-77
2022/09/09 23:34:21;;;;;;;32.80;24.05;;;13.40;99.90;;;;;;10357816;28;20216;-76
2022/09/09 23:40:01;;;;;;;30.25;21.55;;;13.50;99.90;;;;;;10397233;28;20238;-76
2022/09/09 23:45:23;;;;;;;33.03;22.33;;;13.50;99.90;;;;;;10411590;28;20518;-77
2022/09/09 23:50:44;;;;;;;29.40;20.90;;;13.40;99.90;;;;;;10403514;28;20250;-77
2022/09/09 23:56:06;;;;;;;22.93;17.30;;;13.50;99.90;;;;;;10398465;28;20247;-76
